createdAt,value
2023-02-05T00:02:41.339Z,91.32
2023-02-05T00:07:33.430Z,91.50
2023-02-05T00:12:25.251Z,91.93
2023-02-05T00:17:16.891Z,92.50
2023-02-05T00:22:08.581Z,92.87
2023-02-05T00:27:00.257Z,92.82
2023-02-05T00:31:53.061Z,93.12
2023-02-05T00:36:45.090Z,92.93
2023-02-05T00:41:37.204Z,92.54
2023-02-05T00:46:28.890Z,92.31
2023-02-05T00:51:20.634Z,92.85
2023-02-05T00:56:12.392Z,92.75
2023-02-05T01:01:04.679Z,93.36
2023-02-05T01:05:57.072Z,92.69
2023-02-05T01:10:50.762Z,93.29
2023-02-05T01:15:42.614Z,92.69
2023-02-05T01:20:37.836Z,92.98
2023-02-05T01:25:29.515Z,93.12
2023-02-05T01:30:21.163Z,92.13
2023-02-05T01:35:12.863Z,93.10
2023-02-05T01:40:05.508Z,92.39
2023-02-05T01:45:21.851Z,92.07
2023-02-05T01:50:14.324Z,92.43
2023-02-05T01:55:08.051Z,92.27
2023-02-05T01:59:59.858Z,92.59
2023-02-05T02:04:55.511Z,92.22
2023-02-05T02:09:48.652Z,92.38
2023-02-05T02:14:44.198Z,92.23
2023-02-05T02:19:45.676Z,92.34
2023-02-05T02:24:58.607Z,92.43
2023-02-05T02:30:06.970Z,92.30
2023-02-05T02:35:07.684Z,92.24
2023-02-05T02:40:08.352Z,91.96
2023-02-05T02:45:02.722Z,92.07
2023-02-05T02:50:02.153Z,92.34
2023-02-05T02:54:57.879Z,92.35
2023-02-05T02:59:53.301Z,91.93
2023-02-05T03:04:55.087Z,91.94
2023-02-05T03:09:50.933Z,91.85
2023-02-05T03:14:43.017Z,92.01
2023-02-05T03:19:34.855Z,92.12
2023-02-05T03:24:26.862Z,91.92
2023-02-05T03:29:27.137Z,92.07
2023-02-05T03:34:45.344Z,91.76
2023-02-05T03:39:46.253Z,92.29
2023-02-05T03:44:43.732Z,92.40
2023-02-05T03:49:52.428Z,92.39
2023-02-05T03:54:50.646Z,92.39
2023-02-05T03:59:43.769Z,92.62
2023-02-05T04:04:35.485Z,92.89
2023-02-05T04:09:27.291Z,93.26
2023-02-05T04:14:20.274Z,93.20
2023-02-05T04:19:12.054Z,93.02
2023-02-05T04:24:04.106Z,93.69
2023-02-05T04:28:55.952Z,93.48
2023-02-05T04:33:47.659Z,93.62
2023-02-05T04:38:39.475Z,94.11
2023-02-05T04:43:31.206Z,93.65
2023-02-05T04:48:23.217Z,93.88
2023-02-05T04:53:14.955Z,94.48
2023-02-05T04:58:07.125Z,95.22
2023-02-05T05:02:58.902Z,95.67
2023-02-05T05:07:50.579Z,96.17
2023-02-05T05:12:42.934Z,96.35
2023-02-05T05:17:35.539Z,96.31
2023-02-05T05:22:27.337Z,96.72
2023-02-05T05:27:19.262Z,96.87
2023-02-05T05:32:11.270Z,96.79
2023-02-05T05:37:02.946Z,96.79
2023-02-05T05:42:13.342Z,96.63
2023-02-05T05:47:05.085Z,96.40
2023-02-05T05:51:56.888Z,96.73
2023-02-05T05:56:49.747Z,96.92
2023-02-05T06:01:41.537Z,97.52
2023-02-05T06:06:33.398Z,97.66
2023-02-05T06:11:25.102Z,98.27
2023-02-05T06:16:17.225Z,98.06
2023-02-05T06:21:09.916Z,98.08
2023-02-05T06:26:01.751Z,98.18
2023-02-05T06:30:53.595Z,97.16
2023-02-05T06:35:45.472Z,96.81
2023-02-05T06:40:37.230Z,97.18
2023-02-05T06:45:30.593Z,96.97
2023-02-05T06:50:23.208Z,97.14
2023-02-05T06:55:15.120Z,97.67
2023-02-05T07:00:07.590Z,97.79
2023-02-05T07:04:59.480Z,97.56
2023-02-05T07:09:51.632Z,98.05
2023-02-05T07:14:43.716Z,97.62
2023-02-05T07:19:37.160Z,97.52
2023-02-05T07:24:29.143Z,97.09
2023-02-05T07:29:20.941Z,96.68
2023-02-05T07:34:12.797Z,96.42
2023-02-05T07:39:04.603Z,96.11
2023-02-05T07:43:56.345Z,96.16
2023-02-05T07:48:48.811Z,95.66
2023-02-05T07:53:40.591Z,95.92
2023-02-05T07:58:32.397Z,96.87
2023-02-05T08:03:24.142Z,96.02
2023-02-05T08:08:15.999Z,96.58
2023-02-05T08:13:07.754Z,96.40
2023-02-05T08:17:59.497Z,97.22
2023-02-05T08:22:51.296Z,98.31
2023-02-05T08:27:44.141Z,98.48
2023-02-05T08:32:35.958Z,98.42
2023-02-05T08:37:28.287Z,99.54
2023-02-05T08:42:20.015Z,99.90
2023-02-05T08:47:12.001Z,100.00
2023-02-05T08:52:03.852Z,99.95
2023-02-05T08:56:55.545Z,100.00
2023-02-05T09:01:47.484Z,99.24
2023-02-05T09:06:39.518Z,96.86
2023-02-05T09:11:31.355Z,95.00
2023-02-05T09:16:23.585Z,94.50
2023-02-05T09:21:15.618Z,93.17
2023-02-05T09:26:09.393Z,91.80
2023-02-05T09:31:12.704Z,88.68
2023-02-05T09:36:09.608Z,86.37
2023-02-05T09:41:30.928Z,83.16
2023-02-05T09:46:40.931Z,76.91
2023-02-05T09:51:40.957Z,75.85
2023-02-05T09:56:34.864Z,73.93
2023-02-05T10:01:41.718Z,72.32
2023-02-05T10:07:14.980Z,70.74
2023-02-05T10:12:38.327Z,71.99
2023-02-05T10:18:21.300Z,69.32
2023-02-05T10:23:17.895Z,67.70
2023-02-05T10:28:40.994Z,67.16
2023-02-05T10:33:50.554Z,62.08
2023-02-05T10:38:44.829Z,60.22
2023-02-05T10:43:44.622Z,57.76
2023-02-05T10:48:53.077Z,57.32
2023-02-05T10:53:44.883Z,55.84
2023-02-05T10:58:57.827Z,57.92
2023-02-05T11:03:59.601Z,56.12
2023-02-05T11:08:51.865Z,54.71
2023-02-05T11:13:51.766Z,52.98
2023-02-05T11:18:47.147Z,52.02
2023-02-05T11:23:40.184Z,53.01
2023-02-05T11:28:36.897Z,53.40
2023-02-05T11:33:31.456Z,51.16
2023-02-05T11:38:34.087Z,51.04
2023-02-05T11:43:28.114Z,51.63
2023-02-05T11:48:41.339Z,52.16
2023-02-05T11:53:34.875Z,51.76
2023-02-05T11:58:36.964Z,51.11
2023-02-05T12:03:32.553Z,50.81
2023-02-05T12:08:44.902Z,49.34
2023-02-05T12:14:13.963Z,48.85
2023-02-05T12:19:15.783Z,49.54
2023-02-05T12:24:32.146Z,50.56
2023-02-05T12:29:49.224Z,50.69
2023-02-05T12:35:00.159Z,50.92
2023-02-05T12:40:01.339Z,50.91
2023-02-05T12:44:56.174Z,50.95
2023-02-05T12:50:12.604Z,49.91
2023-02-05T12:56:01.893Z,50.04
2023-02-05T13:00:59.969Z,49.78
2023-02-05T13:05:55.354Z,49.18
2023-02-05T13:11:13.218Z,51.84
2023-02-05T13:16:11.789Z,51.04
2023-02-05T13:21:29.182Z,51.32
2023-02-05T13:26:50.875Z,53.75
2023-02-05T13:32:14.690Z,54.71
2023-02-05T13:37:38.642Z,54.04
2023-02-05T13:42:51.124Z,55.25
2023-02-05T13:48:04.831Z,54.53
2023-02-05T13:53:06.339Z,54.36
2023-02-05T13:58:24.910Z,55.47
2023-02-05T14:03:39.295Z,55.46
2023-02-05T14:08:37.724Z,54.15
2023-02-05T14:13:34.762Z,54.72
2023-02-05T14:18:43.380Z,53.50
2023-02-05T14:23:55.950Z,54.87
2023-02-05T14:28:50.321Z,54.20
2023-02-05T14:33:44.406Z,54.24
2023-02-05T14:38:38.502Z,54.64
2023-02-05T14:43:38.363Z,54.22
2023-02-05T14:48:34.598Z,53.80
2023-02-05T14:53:26.851Z,54.80
2023-02-05T14:58:31.158Z,54.55
2023-02-05T15:03:34.968Z,54.20
2023-02-05T15:08:35.554Z,54.71
2023-02-05T15:13:27.538Z,54.95
2023-02-05T15:18:33.473Z,55.49
2023-02-05T15:23:38.245Z,56.45
2023-02-05T15:28:39.696Z,56.75
2023-02-05T15:34:10.460Z,57.31
2023-02-05T15:39:11.100Z,57.72
2023-02-05T15:44:04.271Z,57.92
2023-02-05T15:48:56.837Z,57.97
2023-02-05T15:53:50.426Z,57.03
2023-02-05T15:58:59.363Z,57.20
2023-02-05T16:03:51.229Z,57.60
2023-02-05T16:08:48.325Z,58.05
2023-02-05T16:13:40.075Z,58.52
2023-02-05T16:18:49.467Z,58.51
2023-02-05T16:23:49.561Z,58.45
2023-02-05T16:29:02.455Z,58.99
2023-02-05T16:33:56.832Z,59.20
2023-02-05T16:38:54.357Z,60.17
2023-02-05T16:43:46.294Z,60.53
2023-02-05T16:48:47.317Z,61.20
2023-02-05T16:53:50.110Z,61.63
2023-02-05T16:58:48.927Z,61.78
2023-02-05T17:03:42.020Z,62.31
2023-02-05T17:08:36.974Z,62.67
2023-02-05T17:13:41.009Z,63.60
2023-02-05T17:18:34.255Z,63.52
2023-02-05T17:23:25.979Z,64.96
2023-02-05T17:28:21.462Z,64.86
2023-02-05T17:33:18.434Z,65.06
2023-02-05T17:38:10.151Z,65.70
2023-02-05T17:43:01.959Z,65.95
2023-02-05T17:47:54.068Z,65.75
2023-02-05T17:52:46.207Z,66.23
2023-02-05T17:57:38.073Z,66.09
2023-02-05T18:02:29.823Z,66.61
2023-02-05T18:07:59.690Z,65.98
2023-02-05T18:12:52.348Z,66.34
2023-02-05T18:17:44.276Z,66.59
2023-02-05T18:22:36.799Z,66.82
2023-02-05T18:27:28.762Z,67.12
2023-02-05T18:32:20.586Z,67.65
2023-02-05T18:37:14.211Z,68.04
2023-02-05T18:42:06.443Z,68.19
2023-02-05T18:46:58.468Z,67.96
2023-02-05T18:51:50.194Z,67.93
2023-02-05T18:56:42.074Z,68.85
2023-02-05T19:01:36.548Z,68.88
2023-02-05T19:06:28.443Z,69.04
2023-02-05T19:11:24.197Z,69.13
2023-02-05T19:16:17.720Z,68.96
2023-02-05T19:21:12.370Z,69.27
2023-02-05T19:26:25.257Z,69.68
2023-02-05T19:31:17.110Z,70.24
2023-02-05T19:36:10.800Z,70.68
2023-02-05T19:41:07.158Z,70.96
2023-02-05T19:46:06.549Z,71.50
2023-02-05T19:51:10.792Z,71.20
2023-02-05T19:56:07.360Z,71.07
2023-02-05T20:00:59.221Z,70.90
2023-02-05T20:05:50.926Z,70.69
2023-02-05T20:10:42.734Z,71.17
2023-02-05T20:15:36.407Z,71.37
2023-02-05T20:20:33.575Z,71.55
2023-02-05T20:25:25.757Z,71.33
2023-02-05T20:30:39.012Z,71.38
2023-02-05T20:35:30.937Z,70.88
2023-02-05T20:40:22.860Z,70.47
2023-02-05T20:45:15.620Z,70.18
2023-02-05T20:50:08.563Z,70.25
2023-02-05T20:55:04.017Z,69.72
2023-02-05T20:59:55.894Z,69.62
2023-02-05T21:04:47.793Z,70.23
2023-02-05T21:09:39.587Z,70.17
2023-02-05T21:14:31.655Z,70.52
2023-02-05T21:19:24.390Z,70.13
2023-02-05T21:24:16.442Z,70.79
2023-02-05T21:29:11.482Z,71.13
2023-02-05T21:34:04.806Z,71.81
2023-02-05T21:38:57.001Z,71.97
2023-02-05T21:43:54.521Z,72.10
2023-02-05T21:48:53.802Z,72.92
2023-02-05T21:53:48.265Z,73.28
2023-02-05T21:58:43.198Z,73.15
2023-02-05T22:03:34.921Z,73.76
2023-02-05T22:08:26.914Z,73.79
2023-02-05T22:13:21.162Z,73.94
2023-02-05T22:18:13.025Z,73.90
2023-02-05T22:23:04.757Z,74.39
2023-02-05T22:27:56.697Z,74.80
2023-02-05T22:32:48.469Z,75.22
2023-02-05T22:37:41.463Z,75.64
2023-02-05T22:42:34.223Z,75.88
2023-02-05T22:47:26.110Z,76.51
2023-02-05T22:52:17.904Z,76.83
2023-02-05T22:57:09.804Z,77.59
2023-02-05T23:02:02.554Z,78.01
2023-02-05T23:06:54.418Z,78.11
2023-02-05T23:11:46.573Z,78.21
2023-02-05T23:16:42.537Z,78.47
2023-02-05T23:21:39.331Z,78.89
2023-02-05T23:26:33.467Z,78.86
2023-02-05T23:31:26.581Z,79.08
2023-02-05T23:36:19.178Z,79.39
2023-02-05T23:41:12.350Z,80.13
2023-02-05T23:46:06.769Z,80.14
2023-02-05T23:50:58.651Z,79.79
2023-02-05T23:55:52.496Z,80.56
